createdAt,value
2023-01-08T00:02:02.667Z,11.38
2023-01-08T00:04:05.949Z,11.38
2023-01-08T00:06:13.229Z,11.39
2023-01-08T00:08:16.244Z,11.32
2023-01-08T00:10:19.091Z,11.46
2023-01-08T00:12:22.015Z,11.37
2023-01-08T00:14:25.363Z,11.35
2023-01-08T00:16:29.535Z,11.40
2023-01-08T00:18:32.785Z,11.39
2023-01-08T00:20:35.840Z,11.37
2023-01-08T00:22:40.154Z,11.23
2023-01-08T00:24:43.299Z,11.22
2023-01-08T00:26:46.269Z,11.25
2023-01-08T00:28:49.118Z,11.23
2023-01-08T00:30:53.054Z,11.30
2023-01-08T00:32:55.925Z,11.30
2023-01-08T00:34:58.830Z,11.30
2023-01-08T00:37:01.763Z,11.22
2023-01-08T00:39:06.438Z,11.29
2023-01-08T00:41:09.755Z,11.22
2023-01-08T00:43:12.730Z,11.20
2023-01-08T00:45:15.858Z,11.18
2023-01-08T00:47:18.687Z,11.28
2023-01-08T00:49:21.537Z,11.33
2023-01-08T00:51:24.382Z,11.25
2023-01-08T00:53:27.616Z,11.12
2023-01-08T00:55:32.236Z,11.25
2023-01-08T00:57:35.427Z,11.19
2023-01-08T00:59:38.298Z,11.07
2023-01-08T01:01:41.352Z,11.15
2023-01-08T01:03:45.015Z,11.09
2023-01-08T01:05:48.242Z,11.07
2023-01-08T01:07:51.399Z,11.13
2023-01-08T01:09:54.283Z,11.17
2023-01-08T01:11:58.738Z,11.20
2023-01-08T01:14:01.982Z,11.16
2023-01-08T01:16:05.350Z,11.12
2023-01-08T01:18:08.311Z,11.17
2023-01-08T01:20:14.410Z,11.15
2023-01-08T01:22:17.374Z,11.10
2023-01-08T01:24:21.983Z,11.13
2023-01-08T01:26:26.313Z,11.07
2023-01-08T01:28:30.678Z,11.21
2023-01-08T01:30:33.644Z,11.29
2023-01-08T01:32:36.747Z,11.15
2023-01-08T01:34:39.608Z,11.17
2023-01-08T01:36:42.658Z,11.04
2023-01-08T01:38:45.888Z,11.17
2023-01-08T01:40:48.894Z,11.16
2023-01-08T01:42:51.780Z,11.15
2023-01-08T01:44:56.097Z,11.15
2023-01-08T01:46:59.069Z,11.12
2023-01-08T01:49:05.447Z,11.19
2023-01-08T01:51:08.421Z,11.19
2023-01-08T01:53:13.747Z,11.12
2023-01-08T01:55:17.883Z,11.19
2023-01-08T01:57:20.888Z,11.17
2023-01-08T01:59:24.209Z,11.20
2023-01-08T02:01:29.754Z,11.27
2023-01-08T02:03:37.672Z,11.16
2023-01-08T02:05:48.329Z,11.19
2023-01-08T02:07:55.619Z,11.25
2023-01-08T02:10:07.998Z,11.38
2023-01-08T02:12:19.170Z,11.16
2023-01-08T02:14:27.354Z,11.24
2023-01-08T02:16:37.546Z,11.23
2023-01-08T02:18:47.302Z,11.34
2023-01-08T02:20:55.655Z,11.32
2023-01-08T02:23:12.931Z,11.25
2023-01-08T02:25:20.170Z,11.35
2023-01-08T02:27:26.306Z,11.40
2023-01-08T02:29:30.449Z,11.37
2023-01-08T02:31:34.004Z,11.44
2023-01-08T02:33:38.042Z,11.44
2023-01-08T02:35:43.817Z,11.24
2023-01-08T02:37:47.327Z,11.24
2023-01-08T02:40:01.323Z,11.29
2023-01-08T02:42:11.298Z,11.38
2023-01-08T02:44:19.621Z,11.23
2023-01-08T02:46:27.171Z,11.29
2023-01-08T02:48:36.533Z,11.22
2023-01-08T02:50:42.728Z,11.24
2023-01-08T02:52:51.999Z,11.24
2023-01-08T02:54:55.703Z,11.17
2023-01-08T02:57:01.612Z,11.23
2023-01-08T02:59:05.161Z,11.24
2023-01-08T03:01:11.432Z,11.17
2023-01-08T03:03:17.789Z,11.11
2023-01-08T03:05:25.039Z,11.10
2023-01-08T03:07:28.913Z,10.91
2023-01-08T03:09:32.037Z,11.01
2023-01-08T03:11:37.599Z,11.03
2023-01-08T03:13:43.830Z,10.99
2023-01-08T03:15:48.743Z,11.03
2023-01-08T03:17:55.742Z,11.01
2023-01-08T03:20:01.828Z,10.96
2023-01-08T03:22:09.333Z,10.91
2023-01-08T03:24:14.409Z,10.92
2023-01-08T03:26:20.388Z,10.80
2023-01-08T03:28:30.173Z,10.98
2023-01-08T03:30:33.575Z,10.84
2023-01-08T03:32:38.775Z,10.97
2023-01-08T03:34:45.128Z,10.81
2023-01-08T03:36:49.564Z,10.88
2023-01-08T03:38:55.481Z,10.90
2023-01-08T03:41:00.503Z,10.92
2023-01-08T03:43:03.517Z,10.80
2023-01-08T03:45:07.364Z,10.87
2023-01-08T03:47:11.621Z,10.94
2023-01-08T03:49:14.908Z,10.94
2023-01-08T03:51:19.428Z,10.98
2023-01-08T03:53:22.354Z,10.87
2023-01-08T03:55:25.183Z,10.99
2023-01-08T03:57:27.976Z,10.85
2023-01-08T03:59:30.750Z,10.93
2023-01-08T04:01:33.824Z,10.93
2023-01-08T04:03:37.434Z,11.00
2023-01-08T04:05:40.228Z,10.97
2023-01-08T04:07:44.441Z,11.05
2023-01-08T04:09:47.757Z,10.98
2023-01-08T04:11:50.945Z,10.98
2023-01-08T04:13:53.841Z,10.98
2023-01-08T04:15:58.379Z,11.07
2023-01-08T04:18:01.361Z,11.03
2023-01-08T04:20:04.466Z,11.02
2023-01-08T04:22:07.329Z,11.00
2023-01-08T04:24:12.614Z,11.08
2023-01-08T04:26:15.511Z,11.00
2023-01-08T04:28:18.388Z,11.00
2023-01-08T04:30:21.344Z,11.00
2023-01-08T04:32:24.253Z,11.02
2023-01-08T04:34:27.092Z,10.87
2023-01-08T04:36:30.042Z,10.97
2023-01-08T04:38:32.909Z,10.90
2023-01-08T04:40:37.168Z,10.89
2023-01-08T04:42:40.035Z,10.93
2023-01-08T04:44:42.907Z,10.71
2023-01-08T04:46:45.847Z,10.90
2023-01-08T04:48:48.797Z,10.81
2023-01-08T04:50:52.206Z,10.90
2023-01-08T04:52:55.238Z,10.91
2023-01-08T04:54:58.046Z,10.91
2023-01-08T04:57:02.325Z,10.93
2023-01-08T04:59:05.198Z,10.88
2023-01-08T05:01:12.219Z,10.92
2023-01-08T05:03:15.369Z,10.94
2023-01-08T05:05:18.368Z,10.72
2023-01-08T05:07:21.229Z,10.84
2023-01-08T05:09:24.334Z,10.82
2023-01-08T05:11:27.292Z,10.95
2023-01-08T05:13:31.901Z,10.90
2023-01-08T05:15:34.824Z,10.95
2023-01-08T05:17:37.749Z,10.84
2023-01-08T05:19:40.556Z,10.93
2023-01-08T05:21:43.460Z,10.93
2023-01-08T05:23:48.317Z,10.82
2023-01-08T05:25:51.163Z,10.92
2023-01-08T05:27:54.055Z,10.98
2023-01-08T05:29:58.382Z,10.90
2023-01-08T05:32:01.158Z,10.83
2023-01-08T05:34:03.997Z,10.88
2023-01-08T05:36:08.056Z,10.83
2023-01-08T05:38:11.234Z,10.70
2023-01-08T05:40:14.724Z,10.74
2023-01-08T05:42:17.590Z,10.85
2023-01-08T05:44:20.741Z,10.90
2023-01-08T05:46:25.003Z,10.64
2023-01-08T05:48:27.956Z,10.78
2023-01-08T05:50:30.776Z,10.84
2023-01-08T05:52:33.868Z,10.93
2023-01-08T05:54:36.950Z,10.95
2023-01-08T05:56:39.803Z,10.97
2023-01-08T05:58:42.652Z,10.88
2023-01-08T06:00:46.420Z,11.00
2023-01-08T06:02:50.849Z,10.92
2023-01-08T06:04:53.765Z,10.91
2023-01-08T06:06:56.657Z,10.86
2023-01-08T06:08:59.690Z,10.86
2023-01-08T06:11:04.237Z,10.91
2023-01-08T06:13:08.341Z,10.92
2023-01-08T06:15:12.814Z,10.86
2023-01-08T06:17:16.408Z,10.84
2023-01-08T06:19:23.043Z,10.80
2023-01-08T06:21:25.991Z,10.93
2023-01-08T06:23:29.246Z,10.84
2023-01-08T06:25:32.116Z,10.97
2023-01-08T06:27:35.057Z,10.98
2023-01-08T06:29:40.000Z,10.98
2023-01-08T06:31:42.902Z,10.95
2023-01-08T06:33:45.843Z,10.96
2023-01-08T06:35:51.398Z,10.90
2023-01-08T06:37:55.853Z,10.96
2023-01-08T06:39:58.771Z,10.77
2023-01-08T06:42:01.644Z,10.82
2023-01-08T06:44:04.941Z,10.74
2023-01-08T06:46:08.808Z,10.78
2023-01-08T06:48:11.872Z,10.72
2023-01-08T06:50:14.850Z,10.76
2023-01-08T06:52:19.077Z,10.87
2023-01-08T06:54:21.991Z,10.90
2023-01-08T06:56:24.979Z,10.81
2023-01-08T06:58:28.677Z,10.77
2023-01-08T07:00:31.532Z,10.79
2023-01-08T07:02:34.619Z,10.65
2023-01-08T07:04:37.707Z,10.70
2023-01-08T07:06:40.542Z,10.80
2023-01-08T07:08:45.408Z,10.74
2023-01-08T07:10:48.773Z,10.65
2023-01-08T07:12:51.677Z,10.78
2023-01-08T07:14:54.544Z,10.82
2023-01-08T07:16:57.431Z,10.63
2023-01-08T07:19:01.120Z,10.73
2023-01-08T07:21:04.390Z,10.77
2023-01-08T07:23:09.076Z,10.61
2023-01-08T07:25:13.337Z,10.63
2023-01-08T07:27:16.499Z,10.70
2023-01-08T07:29:19.319Z,10.69
2023-01-08T07:31:22.441Z,10.82
2023-01-08T07:33:25.383Z,10.80
2023-01-08T07:35:28.423Z,10.76
2023-01-08T07:37:31.271Z,10.81
2023-01-08T07:39:34.182Z,10.67
2023-01-08T07:41:38.460Z,10.69
2023-01-08T07:43:41.376Z,10.68
2023-01-08T07:45:44.443Z,10.63
2023-01-08T07:47:47.366Z,10.67
2023-01-08T07:49:50.283Z,10.73
2023-01-08T07:51:53.673Z,10.55
2023-01-08T07:53:57.230Z,10.53
2023-01-08T07:56:01.399Z,10.68
2023-01-08T07:58:10.315Z,10.56
2023-01-08T08:00:14.958Z,10.52
2023-01-08T08:02:17.904Z,10.53
2023-01-08T08:04:21.400Z,10.43
2023-01-08T08:06:24.383Z,10.45
2023-01-08T08:08:27.259Z,10.47
2023-01-08T08:10:30.330Z,10.21
2023-01-08T08:12:33.728Z,10.16
2023-01-08T08:14:38.009Z,10.20
2023-01-08T08:16:41.246Z,10.08
2023-01-08T08:18:44.302Z,10.05
2023-01-08T08:20:47.358Z,10.07
2023-01-08T08:22:50.412Z,10.12
2023-01-08T08:24:53.349Z,10.17
2023-01-08T08:26:56.295Z,10.16
2023-01-08T08:28:59.263Z,10.19
2023-01-08T08:31:03.605Z,10.25
2023-01-08T08:33:07.925Z,10.16
2023-01-08T08:35:11.252Z,10.16
2023-01-08T08:37:14.282Z,10.18
2023-01-08T08:39:17.471Z,10.18
2023-01-08T08:41:20.306Z,10.26
2023-01-08T08:43:23.267Z,10.22
2023-01-08T08:45:27.044Z,10.20
2023-01-08T08:47:31.782Z,10.22
2023-01-08T08:49:34.696Z,10.34
2023-01-08T08:51:37.874Z,10.34
2023-01-08T08:53:40.762Z,10.35
2023-01-08T08:55:43.577Z,10.24
2023-01-08T08:57:47.396Z,10.31
2023-01-08T08:59:50.353Z,10.19
2023-01-08T09:01:53.733Z,10.08
2023-01-08T09:03:58.456Z,10.19
2023-01-08T09:06:01.454Z,10.21
2023-01-08T09:08:04.678Z,10.22
2023-01-08T09:10:09.021Z,10.22
2023-01-08T09:12:11.957Z,10.16
2023-01-08T09:14:15.331Z,10.03
2023-01-08T09:16:19.851Z,10.17
2023-01-08T09:22:00.648Z,10.12
2023-01-08T09:24:04.882Z,10.06
2023-01-08T09:26:10.608Z,9.97
2023-01-08T09:28:14.142Z,9.96
2023-01-08T09:30:17.269Z,10.07
2023-01-08T09:32:20.847Z,10.09
2023-01-08T09:34:23.966Z,10.13
2023-01-08T09:36:27.399Z,10.12
2023-01-08T09:38:31.881Z,10.12
2023-01-08T09:40:39.406Z,10.19
2023-01-08T09:42:43.253Z,10.31
2023-01-08T09:44:50.181Z,10.29
2023-01-08T09:46:55.862Z,10.15
2023-01-08T09:49:01.353Z,10.36
2023-01-08T09:51:05.148Z,10.34
2023-01-08T09:53:15.136Z,10.52
2023-01-08T09:55:20.386Z,10.84
2023-01-08T09:57:25.211Z,10.97
2023-01-08T09:59:28.903Z,10.85
2023-01-08T10:01:33.180Z,11.18
2023-01-08T10:03:41.821Z,11.32
2023-01-08T10:05:46.257Z,11.27
2023-01-08T10:07:50.269Z,11.54
2023-01-08T10:09:53.881Z,11.60
2023-01-08T10:12:01.456Z,11.87
2023-01-08T10:14:04.577Z,11.72
2023-01-08T10:16:10.388Z,11.82
2023-01-08T10:18:15.220Z,11.96
2023-01-08T10:20:20.831Z,12.09
2023-01-08T10:26:31.661Z,12.04
2023-01-08T10:28:37.054Z,11.89
2023-01-08T10:30:41.068Z,11.80
2023-01-08T10:32:48.663Z,11.72
2023-01-08T10:34:54.164Z,11.49
2023-01-08T10:36:58.979Z,11.62
2023-01-08T10:39:03.763Z,11.59
2023-01-08T10:41:11.281Z,11.79
2023-01-08T10:43:19.232Z,11.90
2023-01-08T10:45:26.447Z,12.01
2023-01-08T10:47:32.176Z,12.31
2023-01-08T10:49:39.300Z,12.25
2023-01-08T10:51:50.250Z,12.40
2023-01-08T10:53:54.941Z,12.06
2023-01-08T10:56:04.138Z,12.16
2023-01-08T10:58:16.877Z,12.22
2023-01-08T11:00:29.657Z,12.56
2023-01-08T11:02:38.625Z,12.68
2023-01-08T11:04:45.666Z,12.49
2023-01-08T11:06:50.359Z,12.49
2023-01-08T11:09:02.517Z,12.57
2023-01-08T11:11:06.651Z,12.66
2023-01-08T11:13:30.272Z,12.42
2023-01-08T11:15:43.235Z,12.58
2023-01-08T11:18:07.449Z,12.86
2023-01-08T11:20:26.261Z,12.79
2023-01-08T11:22:31.670Z,12.54
2023-01-08T11:24:39.650Z,12.97
2023-01-08T11:26:49.229Z,13.18
2023-01-08T11:29:04.534Z,13.31
2023-01-08T11:31:21.834Z,13.21
2023-01-08T11:33:31.375Z,13.50
2023-01-08T11:35:39.882Z,13.33
2023-01-08T11:37:55.668Z,13.25
2023-01-08T11:40:00.426Z,13.46
2023-01-08T11:42:38.270Z,13.00
2023-01-08T11:44:56.258Z,13.31
2023-01-08T11:47:18.799Z,13.27
2023-01-08T11:49:57.174Z,13.59
2023-01-08T11:52:13.184Z,13.63
2023-01-08T11:54:29.371Z,13.59
2023-01-08T11:56:47.829Z,13.64
2023-01-08T11:59:29.960Z,13.45
2023-01-08T12:02:15.482Z,13.06
2023-01-08T12:04:40.544Z,12.96
2023-01-08T12:06:49.958Z,12.78
2023-01-08T12:09:06.384Z,12.65
2023-01-08T12:11:29.998Z,12.45
2023-01-08T12:14:00.093Z,12.35
2023-01-08T12:16:13.282Z,12.51
2023-01-08T12:18:34.407Z,12.33
2023-01-08T12:20:45.343Z,12.27
2023-01-08T12:22:54.495Z,12.19
2023-01-08T12:25:31.991Z,12.22
2023-01-08T12:27:56.865Z,12.33
2023-01-08T12:30:21.901Z,12.31
2023-01-08T12:32:29.521Z,12.48
2023-01-08T12:34:52.943Z,12.10
2023-01-08T12:37:04.060Z,12.04
2023-01-08T12:39:11.900Z,12.12
2023-01-08T12:41:16.726Z,12.35
2023-01-08T12:43:49.266Z,11.90
2023-01-08T12:46:07.347Z,12.34
2023-01-08T12:48:16.794Z,12.37
2023-01-08T12:50:41.931Z,12.55
2023-01-08T12:52:50.858Z,12.49
2023-01-08T12:54:58.270Z,12.50
2023-01-08T12:57:27.273Z,12.39
2023-01-08T12:59:40.287Z,12.43
2023-01-08T13:01:52.171Z,12.52
2023-01-08T13:03:59.558Z,12.75
2023-01-08T13:06:12.067Z,12.74
2023-01-08T13:08:38.529Z,13.01
2023-01-08T13:10:49.268Z,12.67
2023-01-08T13:12:53.598Z,12.51
2023-01-08T13:14:57.576Z,12.52
2023-01-08T13:17:05.836Z,12.86
2023-01-08T13:19:24.057Z,12.78
2023-01-08T13:21:36.928Z,12.68
2023-01-08T13:23:39.872Z,12.46
2023-01-08T13:25:52.702Z,12.53
2023-01-08T13:27:56.234Z,12.53
2023-01-08T13:29:59.193Z,12.28
2023-01-08T13:32:02.387Z,12.20
2023-01-08T13:34:20.395Z,12.48
2023-01-08T13:36:25.820Z,12.20
2023-01-08T13:38:30.007Z,12.38
2023-01-08T13:40:40.609Z,12.49
2023-01-08T13:42:43.483Z,12.36
2023-01-08T13:44:50.712Z,12.37
2023-01-08T13:46:55.753Z,12.29
2023-01-08T13:49:02.237Z,12.28
2023-01-08T13:51:05.621Z,12.31
2023-01-08T13:53:13.367Z,12.18
2023-01-08T13:55:19.218Z,11.91
2023-01-08T13:57:22.062Z,12.22
2023-01-08T13:59:35.694Z,12.03
2023-01-08T14:01:38.642Z,12.00
2023-01-08T14:03:47.018Z,11.99
2023-01-08T14:05:51.197Z,11.90
2023-01-08T14:07:54.447Z,11.70
2023-01-08T14:10:08.429Z,11.70
2023-01-08T14:12:15.446Z,11.76
2023-01-08T14:14:19.993Z,11.91
2023-01-08T14:16:23.145Z,11.77
2023-01-08T14:18:28.028Z,11.64
2023-01-08T14:20:33.487Z,11.81
2023-01-08T14:22:36.653Z,11.77
2023-01-08T14:24:39.482Z,11.70
2023-01-08T14:26:42.265Z,11.67
2023-01-08T14:28:53.723Z,11.78
2023-01-08T14:30:58.131Z,11.79
2023-01-08T14:33:01.742Z,11.69
2023-01-08T14:35:09.277Z,11.73
2023-01-08T14:37:14.537Z,11.60
2023-01-08T14:39:24.029Z,11.50
2023-01-08T14:41:52.488Z,11.44
2023-01-08T14:43:56.821Z,11.45
2023-01-08T14:45:59.971Z,11.31
2023-01-08T14:48:10.251Z,11.33
2023-01-08T14:50:20.020Z,11.34
2023-01-08T14:52:23.074Z,11.36
2023-01-08T14:54:30.416Z,11.08
2023-01-08T14:56:34.898Z,11.15
2023-01-08T14:58:39.570Z,11.17
2023-01-08T15:00:44.336Z,11.04
2023-01-08T15:02:47.535Z,10.97
2023-01-08T15:04:53.597Z,11.00
2023-01-08T15:07:07.317Z,11.00
2023-01-08T15:09:21.624Z,10.83
2023-01-08T15:11:25.695Z,10.87
2023-01-08T15:13:33.498Z,10.84
2023-01-08T15:15:39.153Z,10.85
2023-01-08T15:17:44.755Z,10.72
2023-01-08T15:19:50.122Z,10.86
2023-01-08T15:21:54.922Z,10.77
2023-01-08T15:23:59.083Z,10.64
2023-01-08T15:26:02.141Z,10.65
2023-01-08T15:28:05.687Z,10.57
2023-01-08T15:30:23.150Z,10.62
2023-01-08T15:32:29.512Z,10.62
2023-01-08T15:34:33.750Z,10.60
2023-01-08T15:36:36.679Z,10.54
2023-01-08T15:38:40.211Z,10.55
2023-01-08T15:40:44.775Z,10.59
2023-01-08T15:43:05.196Z,10.64
2023-01-08T15:45:13.665Z,10.60
2023-01-08T15:47:16.694Z,10.43
2023-01-08T15:49:19.526Z,10.62
2023-01-08T15:51:24.129Z,10.62
2023-01-08T15:53:27.049Z,10.71
2023-01-08T15:55:32.333Z,10.68
2023-01-08T15:57:35.235Z,10.60
2023-01-08T15:59:38.173Z,10.66
2023-01-08T16:01:41.154Z,10.69
2023-01-08T16:03:44.837Z,10.75
2023-01-08T16:05:47.879Z,10.71
2023-01-08T16:07:52.181Z,10.72
2023-01-08T16:09:55.050Z,10.80
2023-01-08T16:11:58.325Z,10.69
2023-01-08T16:14:01.282Z,10.80
2023-01-08T16:16:08.247Z,10.78
2023-01-08T16:18:11.191Z,10.75
2023-01-08T16:20:15.127Z,10.62
2023-01-08T16:22:17.960Z,10.69
2023-01-08T16:24:22.189Z,10.60
2023-01-08T16:26:25.205Z,10.43
2023-01-08T16:28:28.103Z,10.60
2023-01-08T16:30:31.163Z,10.63
2023-01-08T16:32:34.185Z,10.49
2023-01-08T16:34:37.295Z,10.44
2023-01-08T16:36:40.161Z,10.38
2023-01-08T16:38:43.012Z,10.51
2023-01-08T16:40:47.306Z,10.46
2023-01-08T16:42:50.144Z,10.49
2023-01-08T16:44:53.187Z,10.41
2023-01-08T16:46:56.845Z,10.28
2023-01-08T16:48:59.970Z,10.26
2023-01-08T16:51:06.277Z,10.34
2023-01-08T16:53:10.453Z,10.20
2023-01-08T16:55:13.388Z,10.28
2023-01-08T16:57:17.748Z,10.26
2023-01-08T16:59:23.688Z,10.29
2023-01-08T17:01:27.880Z,10.26
2023-01-08T17:03:31.098Z,10.21
2023-01-08T17:05:36.747Z,10.09
2023-01-08T17:07:39.791Z,10.11
2023-01-08T17:09:43.342Z,10.10
2023-01-08T17:11:47.655Z,10.15
2023-01-08T17:13:51.973Z,10.18
2023-01-08T17:15:54.845Z,9.94
2023-01-08T17:17:58.489Z,9.96
2023-01-08T17:20:01.377Z,10.03
2023-01-08T17:22:04.643Z,10.07
2023-01-08T17:24:08.754Z,10.10
2023-01-08T17:26:15.075Z,10.00
2023-01-08T17:28:17.959Z,10.00
2023-01-08T17:30:22.446Z,9.93
2023-01-08T17:32:26.092Z,9.88
2023-01-08T17:34:28.971Z,10.00
2023-01-08T17:36:32.132Z,9.94
2023-01-08T17:38:35.230Z,9.96
2023-01-08T17:40:38.232Z,9.98
2023-01-08T17:42:41.065Z,10.00
2023-01-08T17:44:43.954Z,9.93
2023-01-08T17:46:48.173Z,9.98
2023-01-08T17:48:51.000Z,9.97
2023-01-08T17:50:53.967Z,9.98
2023-01-08T17:52:58.715Z,9.97
2023-01-08T17:55:01.556Z,9.97
2023-01-08T17:57:04.505Z,9.95
2023-01-08T17:59:07.690Z,9.93
2023-01-08T18:01:11.693Z,9.93
2023-01-08T18:03:16.776Z,9.95
2023-01-08T18:05:19.610Z,9.89
2023-01-08T18:07:23.764Z,9.92
2023-01-08T18:09:26.643Z,9.95
2023-01-08T18:11:29.536Z,9.87
2023-01-08T18:13:33.867Z,9.88
2023-01-08T18:15:36.713Z,9.88
2023-01-08T18:17:40.201Z,9.89
2023-01-08T18:19:44.570Z,9.86
2023-01-08T18:21:48.472Z,9.84
2023-01-08T18:23:51.351Z,9.80
2023-01-08T18:25:54.371Z,9.80
2023-01-08T18:27:57.367Z,9.79
2023-01-08T18:30:00.370Z,9.65
2023-01-08T18:32:03.353Z,9.66
2023-01-08T18:34:06.209Z,9.65
2023-01-08T18:36:13.243Z,9.64
2023-01-08T18:38:16.863Z,9.68
2023-01-08T18:40:19.795Z,9.72
2023-01-08T18:42:28.823Z,9.65
2023-01-08T18:44:31.749Z,9.62
2023-01-08T18:46:34.663Z,9.60
2023-01-08T18:48:37.510Z,9.57
2023-01-08T18:50:41.206Z,9.52
2023-01-08T18:52:45.419Z,9.52
2023-01-08T18:54:48.492Z,9.53
2023-01-08T18:56:52.133Z,9.54
2023-01-08T18:58:55.032Z,9.39
2023-01-08T19:01:04.345Z,9.48
2023-01-08T19:03:09.015Z,9.42
2023-01-08T19:05:12.002Z,9.51
2023-01-08T19:07:15.062Z,9.39
2023-01-08T19:09:19.516Z,9.41
2023-01-08T19:11:22.339Z,9.43
2023-01-08T19:13:25.163Z,9.46
2023-01-08T19:15:28.072Z,9.37
2023-01-08T19:17:31.537Z,9.25
2023-01-08T19:19:34.507Z,9.38
2023-01-08T19:21:37.454Z,9.44
2023-01-08T19:23:40.338Z,9.39
2023-01-08T19:25:44.635Z,9.41
2023-01-08T19:27:47.651Z,9.36
2023-01-08T19:29:50.863Z,9.39
2023-01-08T19:31:54.385Z,9.44
2023-01-08T19:33:58.936Z,9.42
2023-01-08T19:36:03.163Z,9.47
2023-01-08T19:38:06.131Z,9.45
2023-01-08T19:40:10.470Z,9.47
2023-01-08T19:42:32.294Z,9.44
2023-01-08T19:44:35.123Z,9.36
2023-01-08T19:46:37.974Z,9.46
2023-01-08T19:48:42.383Z,9.29
2023-01-08T19:50:46.874Z,9.34
2023-01-08T19:52:51.375Z,9.26
2023-01-08T19:54:55.165Z,9.36
2023-01-08T19:56:58.047Z,9.39
2023-01-08T19:59:02.290Z,9.26
2023-01-08T20:01:10.194Z,9.15
2023-01-08T20:03:13.220Z,9.26
2023-01-08T20:05:16.260Z,9.30
2023-01-08T20:07:19.527Z,9.31
2023-01-08T20:09:22.401Z,9.39
2023-01-08T20:11:25.801Z,9.39
2023-01-08T20:13:28.868Z,9.46
2023-01-08T20:15:33.125Z,9.47
2023-01-08T20:17:36.004Z,9.43
2023-01-08T20:19:38.870Z,9.43
2023-01-08T20:21:41.843Z,9.54
2023-01-08T20:23:45.730Z,9.56
2023-01-08T20:25:49.260Z,9.63
2023-01-08T20:27:52.187Z,9.69
2023-01-08T20:29:55.308Z,9.74
2023-01-08T20:32:00.106Z,9.60
2023-01-08T20:34:04.607Z,9.66
2023-01-08T20:36:09.359Z,9.79
2023-01-08T20:38:12.428Z,9.83
2023-01-08T20:40:15.339Z,9.82
2023-01-08T20:42:32.954Z,9.82
2023-01-08T20:44:37.460Z,9.89
2023-01-08T20:46:40.471Z,9.78
2023-01-08T20:48:48.337Z,9.86
2023-01-08T20:50:55.820Z,9.87
2023-01-08T20:52:58.975Z,9.84
2023-01-08T20:55:01.832Z,9.86
2023-01-08T20:57:06.428Z,9.82
2023-01-08T20:59:09.451Z,9.87
2023-01-08T21:01:15.152Z,9.86
2023-01-08T21:03:18.151Z,9.93
2023-01-08T21:05:24.323Z,9.86
2023-01-08T21:07:29.827Z,9.86
2023-01-08T21:09:32.681Z,9.93
2023-01-08T21:11:39.053Z,9.97
2023-01-08T21:13:42.437Z,9.84
2023-01-08T21:15:45.572Z,9.93
2023-01-08T21:17:48.396Z,9.90
2023-01-08T21:19:51.268Z,9.91
2023-01-08T21:21:55.531Z,10.02
2023-01-08T21:23:58.723Z,9.93
2023-01-08T21:26:03.642Z,10.00
2023-01-08T21:28:08.143Z,9.93
2023-01-08T21:30:12.463Z,9.99
2023-01-08T21:32:15.442Z,10.01
2023-01-08T21:34:18.406Z,10.04
2023-01-08T21:36:22.908Z,10.05
2023-01-08T21:38:27.241Z,9.92
2023-01-08T21:40:30.947Z,9.96
2023-01-08T21:42:51.537Z,9.89
2023-01-08T21:45:11.794Z,10.04
2023-01-08T21:47:16.565Z,10.04
2023-01-08T21:49:19.608Z,10.00
2023-01-08T21:51:40.393Z,10.04
2023-01-08T21:53:44.627Z,10.13
2023-01-08T21:55:47.416Z,10.13
2023-01-08T21:57:50.303Z,10.14
2023-01-08T21:59:53.198Z,10.19
2023-01-08T22:01:56.637Z,10.16
2023-01-08T22:03:59.669Z,10.16
2023-01-08T22:06:04.254Z,10.19
2023-01-08T22:08:08.795Z,10.21
2023-01-08T22:10:13.424Z,10.29
2023-01-08T22:12:16.713Z,10.25
2023-01-08T22:14:19.624Z,10.27
2023-01-08T22:16:22.578Z,10.28
2023-01-08T22:18:25.472Z,10.32
2023-01-08T22:20:28.326Z,10.33
2023-01-08T22:22:31.156Z,10.28
2023-01-08T22:24:34.136Z,10.40
2023-01-08T22:26:38.342Z,10.37
2023-01-08T22:28:42.341Z,10.33
2023-01-08T22:30:45.234Z,10.37
2023-01-08T22:32:48.113Z,10.26
2023-01-08T22:34:51.300Z,10.39
2023-01-08T22:36:54.525Z,10.23
2023-01-08T22:38:57.360Z,10.16
2023-01-08T22:41:00.216Z,10.27
2023-01-08T22:43:04.868Z,10.33
2023-01-08T22:45:08.817Z,10.40
2023-01-08T22:47:11.716Z,10.41
2023-01-08T22:49:15.019Z,10.49
2023-01-08T22:51:18.014Z,10.37
2023-01-08T22:53:21.608Z,10.40
2023-01-08T22:55:24.847Z,10.33
2023-01-08T22:57:28.200Z,10.13
2023-01-08T22:59:32.635Z,10.26
2023-01-08T23:01:35.643Z,10.21
2023-01-08T23:03:42.818Z,10.18
2023-01-08T23:05:45.832Z,10.13
2023-01-08T23:07:48.646Z,10.15
2023-01-08T23:09:51.733Z,10.12
2023-01-08T23:11:54.801Z,10.19
2023-01-08T23:13:57.719Z,10.01
2023-01-08T23:16:02.457Z,10.09
2023-01-08T23:18:05.476Z,10.16
2023-01-08T23:20:09.889Z,10.16
2023-01-08T23:22:12.845Z,10.01
2023-01-08T23:24:16.545Z,10.15
2023-01-08T23:26:21.635Z,10.04
2023-01-08T23:28:24.552Z,10.14
2023-01-08T23:30:31.399Z,10.14
2023-01-08T23:32:36.457Z,10.20
2023-01-08T23:34:39.533Z,10.16
2023-01-08T23:36:43.019Z,10.10
2023-01-08T23:38:46.529Z,10.15
2023-01-08T23:40:49.577Z,10.18
2023-01-08T23:42:52.617Z,10.13
2023-01-08T23:44:55.515Z,10.08
2023-01-08T23:46:58.626Z,9.97
2023-01-08T23:49:02.999Z,10.09
2023-01-08T23:51:06.293Z,9.96
2023-01-08T23:53:09.336Z,9.88
2023-01-08T23:55:12.276Z,9.88
2023-01-08T23:57:16.661Z,9.75
2023-01-08T23:59:19.617Z,9.77
